Time,TemperatureF,DewpointF,PressureIn,WindDirection,WindDirectionDegrees,WindSpeedMPH,WindSpeedGustMPH,Humidity,HourlyPrecipIn,Conditions,Clouds,dailyrainin,SoftwareType,DateUTC
2013-02-17 00:02:00,42.6,14.0,30.22,NW,315,2.0,3.0,31,0.00,,,0.00,meteohub,2013-02-17 08:02:00,
2013-02-17 00:07:00,42.6,14.0,30.21,NW,315,2.0,3.0,31,0.00,,,0.00,meteohub,2013-02-17 08:07:00,
2013-02-17 00:12:00,42.6,14.0,30.21,NW,315,4.0,4.0,31,0.00,,,0.00,meteohub,2013-02-17 08:12:00,
2013-02-17 00:17:00,42.8,14.2,30.21,NW,315,4.0,4.0,31,0.00,,,0.00,meteohub,2013-02-17 08:17:00,
2013-02-17 00:22:00,43.0,13.6,30.21,West,270,4.0,4.0,30,0.00,,,0.00,meteohub,2013-02-17 08:22:00,
2013-02-17 00:27:00,42.8,12.7,30.20,West,270,2.0,4.0,29,0.00,,,0.00,meteohub,2013-02-17 08:27:00,
2013-02-17 00:32:00,42.3,13.1,30.21,SW,225,1.0,4.0,30,0.00,,,0.00,meteohub,2013-02-17 08:32:00,
2013-02-17 00:37:00,41.7,12.6,30.20,NW,315,2.0,4.0,30,0.00,,,0.00,meteohub,2013-02-17 08:37:00,
2013-02-17 00:42:00,41.5,13.1,30.20,NNW,338,2.0,2.0,31,0.00,,,0.00,meteohub,2013-02-17 08:42:00,
2013-02-17 00:47:00,41.2,12.7,30.20,NE,45,0.0,2.0,31,0.00,,,0.00,meteohub,2013-02-17 08:47:00,
2013-02-17 00:52:00,41.0,13.5,30.20,NE,45,0.0,2.0,32,0.00,,,0.00,meteohub,2013-02-17 08:52:00,
2013-02-17 00:57:00,40.8,14.0,30.22,North,0,1.0,2.0,33,0.00,,,0.00,meteohub,2013-02-17 08:57:00,
2013-02-17 01:02:00,40.5,13.6,30.21,West,270,0.0,2.0,33,0.00,,,0.00,meteohub,2013-02-17 09:02:00,
2013-02-17 01:07:00,40.1,13.3,30.22,NNW,338,0.0,2.0,33,0.00,,,0.00,meteohub,2013-02-17 09:07:00,
2013-02-17 01:12:00,40.3,14.2,30.22,NW,315,2.0,2.0,34,0.00,,,0.00,meteohub,2013-02-17 09:12:00,
2013-02-17 01:17:00,40.8,14.5,30.21,NW,315,3.0,3.0,34,0.00,,,0.00,meteohub,2013-02-17 09:17:00,
2013-02-17 01:22:00,41.2,14.2,30.21,West,270,2.0,3.0,33,0.00,,,0.00,meteohub,2013-02-17 09:22:00,
2013-02-17 01:27:00,41.4,14.4,30.21,NW,315,3.0,3.0,33,0.00,,,0.00,meteohub,2013-02-17 09:27:00,
2013-02-17 01:32:00,41.4,13.6,30.21,North,0,2.0,4.0,32,0.00,,,0.00,meteohub,2013-02-17 09:32:00,
2013-02-17 01:37:00,41.0,13.5,30.21,West,270,1.0,4.0,32,0.00,,,0.00,meteohub,2013-02-17 09:37:00,
2013-02-17 01:42:00,40.6,13.8,30.21,SE,135,4.0,4.0,33,0.00,,,0.00,meteohub,2013-02-17 09:42:00,
2013-02-17 01:47:00,40.5,14.4,30.21,South,180,2.0,4.0,34,0.00,,,0.00,meteohub,2013-02-17 09:47:00,
2013-02-17 01:52:00,39.9,13.8,30.21,SE,135,2.0,4.0,34,0.00,,,0.00,meteohub,2013-02-17 09:52:00,
2013-02-17 01:57:00,39.6,14.2,30.20,SE,135,0.0,4.0,35,0.00,,,0.00,meteohub,2013-02-17 09:57:00,
2013-02-17 02:02:00,39.6,14.7,30.20,North,0,2.0,3.0,36,0.00,,,0.00,meteohub,2013-02-17 10:02:00,
2013-02-17 02:07:00,39.2,15.1,30.19,NNW,338,2.0,2.0,37,0.00,,,0.00,meteohub,2013-02-17 10:07:00,
2013-02-17 02:12:00,39.0,16.2,30.20,South,180,2.0,2.0,39,0.00,,,0.00,meteohub,2013-02-17 10:12:00,
2013-02-17 02:17:00,39.0,17.2,30.19,East,90,3.0,3.0,41,0.00,,,0.00,meteohub,2013-02-17 10:17:00,
2013-02-17 02:22:00,39.0,16.7,30.20,West,270,0.0,3.0,40,0.00,,,0.00,meteohub,2013-02-17 10:22:00,
2013-02-17 02:27:00,38.8,16.0,30.19,NNW,338,2.0,3.0,39,0.00,,,0.00,meteohub,2013-02-17 10:27:00,
2013-02-17 02:32:00,39.0,16.2,30.19,North,0,3.0,3.0,39,0.00,,,0.00,meteohub,2013-02-17 10:32:00,
2013-02-17 02:37:00,38.8,16.0,30.18,West,270,3.0,3.0,39,0.00,,,0.00,meteohub,2013-02-17 10:37:00,
2013-02-17 02:42:00,39.0,16.2,30.18,West,270,2.0,4.0,39,0.00,,,0.00,meteohub,2013-02-17 10:42:00,
2013-02-17 02:47:00,39.2,15.1,30.17,West,270,3.0,4.0,37,0.00,,,0.00,meteohub,2013-02-17 10:47:00,
2013-02-17 02:52:00,39.2,15.8,30.17,NW,315,4.0,4.0,38,0.00,,,0.00,meteohub,2013-02-17 10:52:00,
2013-02-17 02:57:00,39.2,15.8,30.17,NW,315,3.0,4.0,38,0.00,,,0.00,meteohub,2013-02-17 10:57:00,
2013-02-17 03:02:00,39.2,14.5,30.17,NW,315,4.0,4.0,36,0.00,,,0.00,meteohub,2013-02-17 11:02:00,
2013-02-17 03:07:00,39.0,14.9,30.17,West,270,3.0,4.0,37,0.00,,,0.00,meteohub,2013-02-17 11:07:00,
2013-02-17 03:12:00,38.7,15.3,30.17,NW,315,4.0,4.0,38,0.00,,,0.00,meteohub,2013-02-17 11:12:00,
2013-02-17 03:17:00,39.0,15.6,30.16,NW,315,4.0,4.0,38,0.00,,,0.00,meteohub,2013-02-17 11:17:00,
2013-02-17 03:22:00,39.0,14.9,30.16,North,0,2.0,4.0,37,0.00,,,0.00,meteohub,2013-02-17 11:22:00,
2013-02-17 03:27:00,38.7,14.0,30.16,North,0,2.0,4.0,36,0.00,,,0.00,meteohub,2013-02-17 11:27:00,
2013-02-17 03:32:00,38.3,13.6,30.17,North,0,0.0,4.0,36,0.00,,,0.00,meteohub,2013-02-17 11:32:00,
2013-02-17 03:37:00,37.9,13.3,30.17,NW,315,2.0,3.0,36,0.00,,,0.00,meteohub,2013-02-17 11:37:00,
2013-02-17 03:42:00,38.1,14.7,30.17,SW,225,2.0,3.0,38,0.00,,,0.00,meteohub,2013-02-17 11:42:00,
2013-02-17 03:47:00,37.9,16.9,30.17,SW,225,2.0,2.0,42,0.00,,,0.00,meteohub,2013-02-17 11:47:00,
2013-02-17 03:52:00,37.2,14.0,30.17,SW,225,2.0,2.0,38,0.00,,,0.00,meteohub,2013-02-17 11:52:00,
2013-02-17 03:57:00,36.5,13.8,30.17,West,270,3.0,3.0,39,0.00,,,0.00,meteohub,2013-02-17 11:57:00,
2013-02-17 04:02:00,36.0,13.5,30.17,SW,225,0.0,3.0,39,0.00,,,0.00,meteohub,2013-02-17 12:02:00,
2013-02-17 04:07:00,35.4,14.0,30.17,NW,315,2.0,3.0,41,0.00,,,0.00,meteohub,2013-02-17 12:07:00,
2013-02-17 04:12:00,35.4,14.0,30.17,East,90,1.0,3.0,41,0.00,,,0.00,meteohub,2013-02-17 12:12:00,
2013-02-17 04:17:00,35.2,13.8,30.17,East,90,2.0,2.0,41,0.00,,,0.00,meteohub,2013-02-17 12:17:00,
2013-02-17 04:22:00,35.1,13.6,30.17,North,0,0.0,2.0,41,0.00,,,0.00,meteohub,2013-02-17 12:22:00,
2013-02-17 04:27:00,34.7,13.5,30.17,NW,315,0.0,2.0,41,0.00,,,0.00,meteohub,2013-02-17 12:27:00,
2013-02-17 04:32:00,34.2,12.9,30.16,North,0,0.0,2.0,41,0.00,,,0.00,meteohub,2013-02-17 12:32:00,
2013-02-17 04:37:00,34.0,12.7,30.17,East,90,0.0,0.0,41,0.00,,,0.00,meteohub,2013-02-17 12:37:00,
2013-02-17 04:42:00,34.2,13.5,30.17,NE,45,2.0,2.0,42,0.00,,,0.00,meteohub,2013-02-17 12:42:00,
2013-02-17 04:47:00,34.3,14.2,30.17,South,180,2.0,2.0,43,0.00,,,0.00,meteohub,2013-02-17 12:47:00,
2013-02-17 04:52:00,34.5,14.4,30.17,NW,315,1.0,2.0,43,0.00,,,0.00,meteohub,2013-02-17 12:52:00,
2013-02-17 04:57:00,34.5,13.8,30.17,NW,315,0.0,2.0,42,0.00,,,0.00,meteohub,2013-02-17 12:57:00,
2013-02-17 05:02:00,34.5,14.4,30.17,East,90,2.0,2.0,43,0.00,,,0.00,meteohub,2013-02-17 13:02:00,
2013-02-17 05:07:00,35.2,15.4,30.17,NE,45,2.0,2.0,44,0.00,,,0.00,meteohub,2013-02-17 13:07:00,
2013-02-17 05:12:00,35.6,14.7,30.17,NW,315,2.0,2.0,42,0.00,,,0.00,meteohub,2013-02-17 13:12:00,
2013-02-17 05:17:00,35.8,14.4,30.17,North,0,2.0,2.0,41,0.00,,,0.00,meteohub,2013-02-17 13:17:00,
2013-02-17 05:22:00,35.8,14.4,30.17,North,0,1.0,2.0,41,0.00,,,0.00,meteohub,2013-02-17 13:22:00,
2013-02-17 05:27:00,35.6,13.6,30.17,South,180,2.0,2.0,40,0.00,,,0.00,meteohub,2013-02-17 13:27:00,
2013-02-17 05:32:00,35.6,14.2,30.17,East,90,2.0,2.0,41,0.00,,,0.00,meteohub,2013-02-17 13:32:00,
2013-02-17 05:37:00,35.8,14.4,30.17,NW,315,2.0,3.0,41,0.00,,,0.00,meteohub,2013-02-17 13:37:00,
2013-02-17 05:42:00,36.0,14.5,30.17,North,0,2.0,3.0,41,0.00,,,0.00,meteohub,2013-02-17 13:42:00,
2013-02-17 05:47:00,36.0,14.5,30.17,NW,315,2.0,2.0,41,0.00,,,0.00,meteohub,2013-02-17 13:47:00,
2013-02-17 05:52:00,36.1,14.2,30.17,NW,315,2.0,3.0,40,0.00,,,0.00,meteohub,2013-02-17 13:52:00,
2013-02-17 05:57:00,36.3,14.4,30.17,West,270,2.0,3.0,40,0.00,,,0.00,meteohub,2013-02-17 13:57:00,
2013-02-17 06:02:00,36.7,14.5,30.17,WNW,293,4.0,4.0,40,0.00,,,0.00,meteohub,2013-02-17 14:02:00,
2013-02-17 06:07:00,36.5,14.5,30.17,West,270,2.0,4.0,40,0.00,,,0.00,meteohub,2013-02-17 14:07:00,
2013-02-17 06:12:00,36.3,14.4,30.17,NW,315,4.0,4.0,40,0.00,,,0.00,meteohub,2013-02-17 14:12:00,
2013-02-17 06:17:00,36.5,14.5,30.17,NW,315,4.0,4.0,40,0.00,,,0.00,meteohub,2013-02-17 14:17:00,
2013-02-17 06:22:00,36.7,14.5,30.17,NW,315,4.0,5.0,40,0.00,,,0.00,meteohub,2013-02-17 14:22:00,
2013-02-17 06:27:00,37.0,14.4,30.17,NNW,338,2.0,5.0,39,0.00,,,0.00,meteohub,2013-02-17 14:27:00,
2013-02-17 06:32:00,37.0,14.4,30.17,West,270,2.0,5.0,39,0.00,,,0.00,meteohub,2013-02-17 14:32:00,
2013-02-17 06:37:00,37.0,14.4,30.17,South,180,2.0,5.0,39,0.00,,,0.00,meteohub,2013-02-17 14:37:00,
2013-02-17 06:42:00,36.5,13.8,30.17,SW,225,2.0,3.0,39,0.00,,,0.00,meteohub,2013-02-17 14:42:00,
2013-02-17 06:47:00,35.8,13.8,30.17,SW,225,2.0,4.0,40,0.00,,,0.00,meteohub,2013-02-17 14:47:00,
2013-02-17 06:52:00,35.2,14.9,30.17,SE,135,4.0,4.0,43,0.00,,,0.00,meteohub,2013-02-17 14:52:00,
2013-02-17 06:57:00,34.7,15.1,30.17,South,180,2.0,4.0,44,0.00,,,0.00,meteohub,2013-02-17 14:57:00,
2013-02-17 07:02:00,34.9,15.6,30.18,SW,225,1.0,4.0,45,0.00,,,0.00,meteohub,2013-02-17 15:02:00,
2013-02-17 07:07:00,35.6,15.8,30.17,West,270,2.0,4.0,44,0.00,,,0.00,meteohub,2013-02-17 15:07:00,
2013-02-17 07:12:00,36.5,16.7,30.18,SE,135,2.0,4.0,44,0.00,,,0.00,meteohub,2013-02-17 15:12:00,
2013-02-17 07:17:00,37.4,19.6,30.17,NW,315,2.0,4.0,48,0.00,,,0.00,meteohub,2013-02-17 15:17:00,
2013-02-17 07:22:00,38.3,19.8,30.17,SW,225,1.0,3.0,47,0.00,,,0.00,meteohub,2013-02-17 15:22:00,
2013-02-17 07:27:00,39.4,19.8,30.18,North,0,1.0,3.0,45,0.00,,,0.00,meteohub,2013-02-17 15:27:00,
2013-02-17 07:32:00,40.3,19.6,30.18,North,0,2.0,3.0,43,0.00,,,0.00,meteohub,2013-02-17 15:32:00,
2013-02-17 07:37:00,41.0,19.6,30.18,NE,45,2.0,2.0,42,0.00,,,0.00,meteohub,2013-02-17 15:37:00,
2013-02-17 07:42:00,41.5,19.6,30.17,North,0,3.0,3.0,41,0.00,,,0.00,meteohub,2013-02-17 15:42:00,
2013-02-17 07:47:00,43.0,20.3,30.17,West,270,3.0,3.0,40,0.00,,,0.00,meteohub,2013-02-17 15:47:00,
2013-02-17 07:52:00,43.3,20.1,30.18,West,270,2.0,3.0,39,0.00,,,0.00,meteohub,2013-02-17 15:52:00,
2013-02-17 07:57:00,44.4,21.0,30.16,West,270,3.0,3.0,39,0.00,,,0.00,meteohub,2013-02-17 15:57:00,
2013-02-17 08:02:00,45.5,19.4,30.16,West,270,4.0,4.0,35,0.00,,,0.00,meteohub,2013-02-17 16:02:00,
2013-02-17 08:07:00,45.1,17.1,30.16,West,270,4.0,4.0,32,0.00,,,0.00,meteohub,2013-02-17 16:07:00,
2013-02-17 08:12:00,45.1,16.3,30.16,West,270,5.0,5.0,31,0.00,,,0.00,meteohub,2013-02-17 16:12:00,
2013-02-17 08:17:00,45.0,15.4,30.15,West,270,5.0,5.0,30,0.00,,,0.00,meteohub,2013-02-17 16:17:00,
2013-02-17 08:22:00,45.1,15.6,30.16,West,270,4.0,5.0,30,0.00,,,0.00,meteohub,2013-02-17 16:22:00,
2013-02-17 08:27:00,46.4,18.1,30.15,West,270,4.0,5.0,32,0.00,,,0.00,meteohub,2013-02-17 16:27:00,
2013-02-17 08:32:00,47.1,17.2,30.15,NW,315,2.0,5.0,30,0.00,,,0.00,meteohub,2013-02-17 16:32:00,
2013-02-17 08:37:00,48.4,17.6,30.15,NW,315,4.0,6.0,29,0.00,,,0.00,meteohub,2013-02-17 16:37:00,
2013-02-17 08:42:00,49.1,18.1,30.17,NW,315,2.0,6.0,29,0.00,,,0.00,meteohub,2013-02-17 16:42:00,
2013-02-17 08:47:00,51.4,19.4,30.16,SW,225,2.0,6.0,28,0.00,,,0.00,meteohub,2013-02-17 16:47:00,
2013-02-17 08:52:00,53.8,17.8,30.16,West,270,2.0,4.0,24,0.00,,,0.00,meteohub,2013-02-17 16:52:00,
2013-02-17 08:57:00,56.1,19.8,30.16,NW,315,1.0,2.0,24,0.00,,,0.00,meteohub,2013-02-17 16:57:00,
2013-02-17 09:02:00,58.1,19.4,30.18,West,270,3.0,3.0,22,0.00,,,0.00,meteohub,2013-02-17 17:02:00,
2013-02-17 09:07:00,58.8,20.1,30.18,West,270,4.0,4.0,22,0.00,,,0.00,meteohub,2013-02-17 17:07:00,
2013-02-17 09:12:00,59.0,18.0,30.17,West,270,3.0,4.0,20,0.00,,,0.00,meteohub,2013-02-17 17:12:00,
2013-02-17 09:17:00,59.7,18.5,30.17,NW,315,4.0,4.0,20,0.00,,,0.00,meteohub,2013-02-17 17:17:00,
2013-02-17 09:22:00,60.8,18.3,30.17,East,90,3.0,4.0,19,0.00,,,0.00,meteohub,2013-02-17 17:22:00,
2013-02-17 09:27:00,63.7,18.0,30.17,SW,225,3.0,4.0,17,0.00,,,0.00,meteohub,2013-02-17 17:27:00,
2013-02-17 09:32:00,65.5,16.5,30.17,East,90,11.0,11.0,15,0.00,,,0.00,meteohub,2013-02-17 17:32:00,
2013-02-17 09:37:00,64.4,15.8,30.17,ESE,113,13.0,18.0,15,0.00,,,0.00,meteohub,2013-02-17 17:37:00,
2013-02-17 09:42:00,64.0,16.9,30.17,NE,45,10.0,18.0,16,0.00,,,0.00,meteohub,2013-02-17 17:42:00,
2013-02-17 09:47:00,64.9,16.2,30.17,SE,135,15.0,18.0,15,0.00,,,0.00,meteohub,2013-02-17 17:47:00,
2013-02-17 09:52:00,64.6,15.8,30.17,SE,135,14.0,19.0,15,0.00,,,0.00,meteohub,2013-02-17 17:52:00,
2013-02-17 09:57:00,65.1,14.7,30.16,North,0,17.0,19.0,14,0.00,,,0.00,meteohub,2013-02-17 17:57:00,
2013-02-17 10:02:00,65.5,15.1,30.17,SSW,203,8.0,22.0,14,0.00,,,0.00,meteohub,2013-02-17 18:02:00,
2013-02-17 10:07:00,66.2,18.7,30.17,East,90,16.0,22.0,16,0.00,,,0.00,meteohub,2013-02-17 18:07:00,
2013-02-17 10:12:00,65.8,19.8,30.16,SE,135,15.0,22.0,17,0.00,,,0.00,meteohub,2013-02-17 18:12:00,
2013-02-17 10:17:00,66.0,19.9,30.15,ENE,68,13.0,20.0,17,0.00,,,0.00,meteohub,2013-02-17 18:17:00,
2013-02-17 10:22:00,66.4,18.9,30.15,SE,135,17.0,20.0,16,0.00,,,0.00,meteohub,2013-02-17 18:22:00,
2013-02-17 10:27:00,67.1,18.0,30.15,SE,135,25.0,25.0,15,0.00,,,0.00,meteohub,2013-02-17 18:27:00,
2013-02-17 10:32:00,66.9,17.8,30.15,East,90,23.0,25.0,15,0.00,,,0.00,meteohub,2013-02-17 18:32:00,
2013-02-17 10:37:00,67.6,18.3,30.15,East,90,21.0,25.0,15,0.00,,,0.00,meteohub,2013-02-17 18:37:00,
2013-02-17 10:42:00,67.8,18.5,30.15,East,90,16.0,25.0,15,0.00,,,0.00,meteohub,2013-02-17 18:42:00,
2013-02-17 10:47:00,67.8,18.5,30.15,SE,135,15.0,23.0,15,0.00,,,0.00,meteohub,2013-02-17 18:47:00,
2013-02-17 10:52:00,68.7,15.8,30.14,SE,135,15.0,21.0,13,0.00,,,0.00,meteohub,2013-02-17 18:52:00,
2013-02-17 10:57:00,68.5,15.8,30.16,ESE,113,17.0,18.0,13,0.00,,,0.00,meteohub,2013-02-17 18:57:00,
2013-02-17 11:02:00,68.0,15.3,30.16,SW,225,14.0,18.0,13,0.00,,,0.00,meteohub,2013-02-17 19:02:00,
2013-02-17 11:07:00,68.7,15.8,30.16,NE,45,11.0,19.0,13,0.00,,,0.00,meteohub,2013-02-17 19:07:00,
2013-02-17 11:12:00,68.7,15.8,30.15,NE,45,14.0,19.0,13,0.00,,,0.00,meteohub,2013-02-17 19:12:00,
2013-02-17 11:17:00,68.7,15.8,30.15,NE,45,14.0,19.0,13,0.00,,,0.00,meteohub,2013-02-17 19:17:00,
2013-02-17 11:22:00,69.1,16.2,30.15,South,180,11.0,19.0,13,0.00,,,0.00,meteohub,2013-02-17 19:22:00,
2013-02-17 11:27:00,69.8,14.9,30.15,East,90,14.0,17.0,12,0.00,,,0.00,meteohub,2013-02-17 19:27:00,
2013-02-17 11:32:00,69.4,16.5,30.15,SE,135,16.0,16.0,13,0.00,,,0.00,meteohub,2013-02-17 19:32:00,
2013-02-17 11:37:00,70.0,15.1,30.14,SW,225,13.0,21.0,12,0.00,,,0.00,meteohub,2013-02-17 19:37:00,
2013-02-17 11:42:00,70.2,15.1,30.14,SE,135,17.0,21.0,12,0.00,,,0.00,meteohub,2013-02-17 19:42:00,
2013-02-17 11:47:00,70.2,15.1,30.14,South,180,15.0,21.0,12,0.00,,,0.00,meteohub,2013-02-17 19:47:00,
2013-02-17 11:52:00,70.3,15.3,30.14,SE,135,15.0,21.0,12,0.00,,,0.00,meteohub,2013-02-17 19:52:00,
2013-02-17 11:57:00,69.4,16.5,30.14,East,90,15.0,21.0,13,0.00,,,0.00,meteohub,2013-02-17 19:57:00,
2013-02-17 12:02:00,70.0,15.1,30.14,East,90,24.0,26.0,12,0.00,,,0.00,meteohub,2013-02-17 20:02:00,
2013-02-17 12:07:00,69.8,14.9,30.12,ESE,113,17.0,26.0,12,0.02,,,0.02,meteohub,2013-02-17 20:07:00,
2013-02-17 12:12:00,70.0,15.1,30.12,SSE,158,16.0,26.0,12,0.02,,,0.02,meteohub,2013-02-17 20:12:00,
2013-02-17 12:17:00,69.6,16.5,30.12,NE,45,18.0,24.0,13,0.02,,,0.02,meteohub,2013-02-17 20:17:00,
2013-02-17 12:22:00,69.4,16.5,30.11,South,180,18.0,23.0,13,0.02,,,0.02,meteohub,2013-02-17 20:22:00,
2013-02-17 12:27:00,69.3,16.3,30.11,North,0,21.0,21.0,13,0.02,,,0.02,meteohub,2013-02-17 20:27:00,
2013-02-17 12:33:00,69.3,16.3,30.11,SE,135,23.0,23.0,13,0.07,,,0.07,meteohub,2013-02-17 20:33:00,
2013-02-17 12:38:00,69.3,16.3,30.11,NE,45,17.0,23.0,13,0.08,,,0.08,meteohub,2013-02-17 20:38:00,
2013-02-17 12:43:00,69.3,16.3,30.11,NE,45,17.0,23.0,13,0.08,,,0.08,meteohub,2013-02-17 20:43:00,
2013-02-17 12:48:00,69.3,16.3,30.11,NE,45,17.0,23.0,13,0.08,,,0.08,meteohub,2013-02-17 20:48:00,
2013-02-17 12:53:00,70.5,13.5,30.10,South,180,17.0,18.0,11,0.08,,,0.08,meteohub,2013-02-17 20:53:00,
2013-02-17 12:58:00,70.5,13.5,30.10,South,180,17.0,17.0,11,0.08,,,0.08,meteohub,2013-02-17 20:58:00,
2013-02-17 13:03:00,70.5,13.5,30.10,South,180,17.0,17.0,11,0.08,,,0.08,meteohub,2013-02-17 21:03:00,
2013-02-17 13:08:00,69.8,14.9,30.10,East,90,16.0,17.0,12,0.06,,,0.08,meteohub,2013-02-17 21:08:00,
2013-02-17 13:13:00,69.8,14.9,30.10,East,90,16.0,17.0,12,0.06,,,0.08,meteohub,2013-02-17 21:13:00,
2013-02-17 13:18:00,69.8,14.9,30.09,East,90,15.0,16.0,12,0.06,,,0.08,meteohub,2013-02-17 21:18:00,
2013-02-17 13:23:00,69.8,14.9,30.09,East,90,17.0,17.0,12,0.06,,,0.08,meteohub,2013-02-17 21:23:00,
2013-02-17 13:28:00,69.8,14.9,30.09,East,90,17.0,18.0,12,0.06,,,0.08,meteohub,2013-02-17 21:28:00,
2013-02-17 13:33:00,71.1,13.8,30.09,NE,45,15.0,18.0,11,0.01,,,0.08,meteohub,2013-02-17 21:33:00,
2013-02-17 13:38:00,71.1,13.8,30.09,NE,45,15.0,18.0,11,0.00,,,0.08,meteohub,2013-02-17 21:38:00,
2013-02-17 13:43:00,71.1,13.8,30.09,NE,45,15.0,17.0,11,0.00,,,0.08,meteohub,2013-02-17 21:43:00,
2013-02-17 13:48:00,70.9,13.8,30.09,SW,225,15.0,15.0,11,0.00,,,0.08,meteohub,2013-02-17 21:48:00,
2013-02-17 13:53:00,70.7,13.6,30.09,SE,135,17.0,17.0,11,0.00,,,0.08,meteohub,2013-02-17 21:53:00,
2013-02-17 13:58:00,70.7,13.6,30.09,ESE,113,12.0,17.0,11,0.00,,,0.08,meteohub,2013-02-17 21:58:00,
2013-02-17 14:03:00,70.9,13.8,30.09,NE,45,10.0,17.0,11,0.00,,,0.08,meteohub,2013-02-17 22:03:00,
2013-02-17 14:08:00,70.7,13.6,30.09,South,180,18.0,18.0,11,0.00,,,0.08,meteohub,2013-02-17 22:08:00,
2013-02-17 14:13:00,69.8,14.9,30.09,SE,135,25.0,25.0,12,0.00,,,0.08,meteohub,2013-02-17 22:13:00,
2013-02-17 14:18:00,69.8,14.9,30.08,SE,135,25.0,25.0,12,0.00,,,0.08,meteohub,2013-02-17 22:18:00,
2013-02-17 14:23:00,70.3,15.3,30.09,East,90,9.0,25.0,12,0.00,,,0.08,meteohub,2013-02-17 22:23:00,
2013-02-17 14:29:00,70.5,13.5,30.09,NE,45,17.0,25.0,11,0.00,,,0.08,meteohub,2013-02-17 22:29:00,
2013-02-17 14:34:00,70.5,15.4,30.08,SW,225,8.0,25.0,12,0.00,,,0.08,meteohub,2013-02-17 22:34:00,
2013-02-17 14:39:00,71.2,14.0,30.09,NE,45,15.0,25.0,11,0.00,,,0.08,meteohub,2013-02-17 22:39:00,
2013-02-17 14:44:00,70.9,13.8,30.09,East,90,11.0,18.0,11,0.00,,,0.08,meteohub,2013-02-17 22:44:00,
2013-02-17 14:49:00,70.0,15.1,30.09,East,90,18.0,18.0,12,0.00,,,0.08,meteohub,2013-02-17 22:49:00,
2013-02-17 14:54:00,69.8,14.9,30.09,North,0,19.0,19.0,12,0.00,,,0.08,meteohub,2013-02-17 22:54:00,
2013-02-17 14:59:00,69.8,14.9,30.09,North,0,19.0,19.0,12,0.00,,,0.08,meteohub,2013-02-17 22:59:00,
2013-02-17 15:04:00,69.8,14.9,30.08,North,0,19.0,19.0,12,0.00,,,0.08,meteohub,2013-02-17 23:04:00,
2013-02-17 15:09:00,71.6,12.2,30.08,SE,135,18.0,19.0,10,0.00,,,0.08,meteohub,2013-02-17 23:09:00,
2013-02-17 15:14:00,71.1,13.8,30.08,SE,135,9.0,19.0,11,0.01,,,0.09,meteohub,2013-02-17 23:14:00,
2013-02-17 15:19:00,71.1,13.8,30.09,NNE,23,21.0,21.0,11,0.01,,,0.09,meteohub,2013-02-17 23:19:00,
2013-02-17 15:24:00,70.2,15.1,30.09,NE,45,16.0,21.0,12,0.01,,,0.09,meteohub,2013-02-17 23:24:00,
2013-02-17 15:29:00,69.8,14.9,30.09,SE,135,17.0,21.0,12,0.01,,,0.09,meteohub,2013-02-17 23:29:00,
2013-02-17 15:34:00,69.6,16.5,30.08,ENE,68,8.0,21.0,13,0.01,,,0.09,meteohub,2013-02-17 23:34:00,
2013-02-17 15:39:00,69.6,16.5,30.08,ENE,68,8.0,21.0,13,0.01,,,0.09,meteohub,2013-02-17 23:39:00,
2013-02-17 15:44:00,69.8,14.9,30.07,East,90,16.0,17.0,12,0.01,,,0.09,meteohub,2013-02-17 23:44:00,
2013-02-17 15:50:00,69.8,14.9,30.07,East,90,20.0,20.0,12,0.01,,,0.09,meteohub,2013-02-17 23:50:00,
2013-02-17 15:55:00,69.4,16.5,30.07,SE,135,10.0,20.0,13,0.01,,,0.09,meteohub,2013-02-17 23:55:00,
2013-02-17 16:00:00,69.4,16.5,30.07,SE,135,12.0,20.0,13,0.01,,,0.09,meteohub,2013-02-18 00:00:00,
2013-02-17 16:05:00,69.4,16.5,30.08,SE,135,12.0,20.0,13,0.01,,,0.09,meteohub,2013-02-18 00:05:00,
2013-02-17 16:10:00,70.0,15.1,30.08,WNW,293,15.0,20.0,12,0.00,,,0.09,meteohub,2013-02-18 00:10:00,
2013-02-17 16:15:00,69.4,16.5,30.08,ESE,113,14.0,19.0,13,0.00,,,0.09,meteohub,2013-02-18 00:15:00,
2013-02-17 16:20:00,69.3,16.3,30.08,SE,135,14.0,17.0,13,0.00,,,0.09,meteohub,2013-02-18 00:20:00,
2013-02-17 16:25:00,69.1,16.2,30.09,SE,135,16.0,17.0,13,0.00,,,0.09,meteohub,2013-02-18 00:25:00,
2013-02-17 16:30:00,68.5,15.8,30.09,North,0,14.0,16.0,13,0.00,,,0.09,meteohub,2013-02-18 00:30:00,
2013-02-17 16:35:00,68.2,15.4,30.09,NW,315,13.0,16.0,13,0.00,,,0.09,meteohub,2013-02-18 00:35:00,
2013-02-17 16:40:00,67.6,18.3,30.09,North,0,13.0,16.0,15,0.00,,,0.09,meteohub,2013-02-18 00:40:00,
2013-02-17 16:45:00,66.9,17.8,30.09,NE,45,12.0,17.0,15,0.00,,,0.09,meteohub,2013-02-18 00:45:00,
2013-02-17 16:50:00,66.6,17.4,30.08,NE,45,13.0,17.0,15,0.00,,,0.09,meteohub,2013-02-18 00:50:00,
2013-02-17 16:55:00,66.6,17.4,30.09,North,0,11.0,17.0,15,0.00,,,0.09,meteohub,2013-02-18 00:55:00,
2013-02-17 17:00:00,65.8,19.8,30.09,North,0,20.0,20.0,17,0.00,,,0.09,meteohub,2013-02-18 01:00:00,
2013-02-17 17:05:00,64.8,18.9,30.09,South,180,19.0,20.0,17,0.00,,,0.09,meteohub,2013-02-18 01:05:00,
2013-02-17 17:10:00,64.0,19.6,30.09,North,0,17.0,21.0,18,0.00,,,0.09,meteohub,2013-02-18 01:10:00,
2013-02-17 17:15:00,62.8,18.7,30.09,East,90,15.0,21.0,18,0.00,,,0.09,meteohub,2013-02-18 01:15:00,
2013-02-17 17:20:00,62.1,20.5,30.09,North,0,16.0,21.0,20,0.00,,,0.09,meteohub,2013-02-18 01:20:00,
2013-02-17 17:25:00,61.0,18.5,30.09,NW,315,17.0,18.0,19,0.00,,,0.09,meteohub,2013-02-18 01:25:00,
2013-02-17 17:31:00,59.9,19.9,30.10,North,0,15.0,17.0,21,0.00,,,0.09,meteohub,2013-02-18 01:31:00,
2013-02-17 17:36:00,59.4,20.5,30.09,NW,315,11.0,18.0,22,0.00,,,0.09,meteohub,2013-02-18 01:36:00,
2013-02-17 17:41:00,58.8,22.1,30.09,NW,315,14.0,23.0,24,0.00,,,0.09,meteohub,2013-02-18 01:41:00,
2013-02-17 17:46:00,58.3,21.6,30.10,North,0,10.0,23.0,24,0.00,,,0.09,meteohub,2013-02-18 01:46:00,
2013-02-17 17:51:00,57.9,22.3,30.10,NE,45,11.0,21.0,25,0.00,,,0.09,meteohub,2013-02-18 01:51:00,
2013-02-17 17:56:00,57.6,23.0,30.11,East,90,15.0,15.0,26,0.00,,,0.09,meteohub,2013-02-18 01:56:00,
2013-02-17 18:01:00,57.2,22.6,30.11,NNE,23,14.0,15.0,26,0.00,,,0.09,meteohub,2013-02-18 02:01:00,
2013-02-17 18:06:00,56.8,24.1,30.11,North,0,8.0,15.0,28,0.00,,,0.09,meteohub,2013-02-18 02:06:00,
2013-02-17 18:11:00,56.7,24.8,30.11,South,180,11.0,15.0,29,0.00,,,0.09,meteohub,2013-02-18 02:11:00,
2013-02-17 18:16:00,56.5,24.6,30.11,North,0,12.0,14.0,29,0.00,,,0.09,meteohub,2013-02-18 02:16:00,
2013-02-17 18:21:00,56.3,24.4,30.11,North,0,11.0,15.0,29,0.00,,,0.09,meteohub,2013-02-18 02:21:00,
2013-02-17 18:26:00,56.1,25.2,30.12,North,0,12.0,15.0,30,0.00,,,0.09,meteohub,2013-02-18 02:26:00,
2013-02-17 18:31:00,56.1,25.2,30.11,North,0,12.0,15.0,30,0.00,,,0.09,meteohub,2013-02-18 02:31:00,
2013-02-17 18:36:00,55.8,25.5,30.11,WNW,293,15.0,16.0,31,0.00,,,0.09,meteohub,2013-02-18 02:36:00,
2013-02-17 18:41:00,55.6,24.6,30.11,NNE,23,20.0,20.0,30,0.00,,,0.09,meteohub,2013-02-18 02:41:00,
2013-02-17 18:46:00,55.8,23.9,30.12,NE,45,16.0,20.0,29,0.00,,,0.09,meteohub,2013-02-18 02:46:00,
2013-02-17 18:51:00,55.6,23.0,30.12,North,0,16.0,20.0,28,0.00,,,0.09,meteohub,2013-02-18 02:51:00,
2013-02-17 18:56:00,55.4,22.8,30.12,NE,45,16.0,20.0,28,0.00,,,0.09,meteohub,2013-02-18 02:56:00,
2013-02-17 19:02:00,55.4,21.9,30.11,North,0,13.0,17.0,27,0.00,,,0.09,meteohub,2013-02-18 03:02:00,
2013-02-17 19:07:00,55.4,21.9,30.12,NE,45,17.0,20.0,27,0.00,,,0.09,meteohub,2013-02-18 03:07:00,
2013-02-17 19:12:00,55.2,20.8,30.12,North,0,16.0,20.0,26,0.00,,,0.09,meteohub,2013-02-18 03:12:00,
2013-02-17 19:17:00,55.0,20.8,30.12,North,0,11.0,19.0,26,0.00,,,0.09,meteohub,2013-02-18 03:17:00,
2013-02-17 19:22:00,54.9,20.7,30.13,WSW,248,12.0,18.0,26,0.00,,,0.09,meteohub,2013-02-18 03:22:00,
2013-02-17 19:27:00,54.5,21.2,30.13,North,0,14.0,18.0,27,0.00,,,0.09,meteohub,2013-02-18 03:27:00,
2013-02-17 19:32:00,54.3,21.9,30.13,NE,45,11.0,16.0,28,0.00,,,0.09,meteohub,2013-02-18 03:32:00,
2013-02-17 19:37:00,54.1,21.7,30.14,North,0,13.0,16.0,28,0.00,,,0.09,meteohub,2013-02-18 03:37:00,
2013-02-17 19:42:00,54.0,22.5,30.13,North,0,11.0,16.0,29,0.00,,,0.09,meteohub,2013-02-18 03:42:00,
2013-02-17 19:47:00,53.8,22.3,30.13,North,0,11.0,15.0,29,0.00,,,0.09,meteohub,2013-02-18 03:47:00,
2013-02-17 19:52:00,53.4,25.0,30.14,North,0,13.0,14.0,33,0.00,,,0.09,meteohub,2013-02-18 03:52:00,
2013-02-17 19:57:00,53.2,27.7,30.14,North,0,11.0,17.0,37,0.00,,,0.09,meteohub,2013-02-18 03:57:00,
2013-02-17 20:02:00,53.1,29.3,30.14,NE,45,11.0,17.0,40,0.00,,,0.09,meteohub,2013-02-18 04:02:00,
2013-02-17 20:07:00,52.9,29.8,30.14,North,0,11.0,15.0,41,0.00,,,0.09,meteohub,2013-02-18 04:07:00,
2013-02-17 20:12:00,52.5,30.7,30.14,North,0,11.0,15.0,43,0.00,,,0.09,meteohub,2013-02-18 04:12:00,
2013-02-17 20:17:00,52.5,30.7,30.14,North,0,9.0,13.0,43,0.00,,,0.09,meteohub,2013-02-18 04:17:00,
2013-02-17 20:22:00,52.5,30.7,30.15,North,0,9.0,13.0,43,0.00,,,0.09,meteohub,2013-02-18 04:22:00,
2013-02-17 20:27:00,52.0,32.9,30.15,NE,45,11.0,13.0,48,0.00,,,0.09,meteohub,2013-02-18 04:27:00,
2013-02-17 20:33:00,52.0,33.4,30.15,NE,45,8.0,11.0,49,0.00,,,0.09,meteohub,2013-02-18 04:33:00,
2013-02-17 20:38:00,51.8,32.7,30.15,ENE,68,11.0,11.0,48,0.00,,,0.09,meteohub,2013-02-18 04:38:00,
2013-02-17 20:43:00,51.8,33.3,30.15,North,0,11.0,11.0,49,0.00,,,0.09,meteohub,2013-02-18 04:43:00,
2013-02-17 20:48:00,51.8,32.7,30.15,WNW,293,8.0,11.0,48,0.00,,,0.09,meteohub,2013-02-18 04:48:00,
2013-02-17 20:53:00,51.8,32.7,30.15,North,0,10.0,12.0,48,0.00,,,0.09,meteohub,2013-02-18 04:53:00,
2013-02-17 20:58:00,51.6,33.6,30.16,North,0,11.0,12.0,50,0.00,,,0.09,meteohub,2013-02-18 04:58:00,
2013-02-17 21:00:00,51.4,33.4,30.16,North,0,9.0,12.0,50,0.00,,,0.09,meteohub,2013-02-18 05:00:00,
2013-02-17 21:01:00,51.4,33.4,30.17,North,0,9.0,13.0,50,0.00,,,0.09,meteohub,2013-02-18 05:01:00,
2013-02-17 21:06:00,51.3,33.3,30.16,North,0,11.0,13.0,50,0.00,,,0.09,meteohub,2013-02-18 05:06:00,
2013-02-17 21:11:00,50.9,32.9,30.16,NE,45,10.0,13.0,50,0.00,,,0.09,meteohub,2013-02-18 05:11:00,
2013-02-17 21:16:00,50.9,33.4,30.16,NE,45,11.0,12.0,51,0.00,,,0.09,meteohub,2013-02-18 05:16:00,
2013-02-17 21:22:00,50.7,33.3,30.17,North,0,11.0,12.0,51,0.00,,,0.09,meteohub,2013-02-18 05:22:00,
2013-02-17 21:27:00,50.2,32.7,30.17,North,0,11.0,11.0,51,0.00,,,0.09,meteohub,2013-02-18 05:27:00,
2013-02-17 21:32:00,50.0,33.1,30.17,North,0,12.0,12.0,52,0.00,,,0.09,meteohub,2013-02-18 05:32:00,
2013-02-17 21:37:00,49.5,33.4,30.17,NW,315,8.0,12.0,54,0.00,,,0.09,meteohub,2013-02-18 05:37:00,
2013-02-17 21:42:00,49.1,33.6,30.17,NE,45,12.0,12.0,55,0.00,,,0.09,meteohub,2013-02-18 05:42:00,
2013-02-17 21:47:00,48.9,34.0,30.17,North,0,11.0,12.0,56,0.00,,,0.09,meteohub,2013-02-18 05:47:00,
2013-02-17 21:52:00,48.7,33.8,30.17,NNW,338,11.0,12.0,56,0.00,,,0.09,meteohub,2013-02-18 05:52:00,
2013-02-17 21:57:00,48.7,34.2,30.17,NE,45,10.0,12.0,57,0.00,,,0.09,meteohub,2013-02-18 05:57:00,
2013-02-17 22:02:00,48.7,34.2,30.17,WNW,293,11.0,11.0,57,0.00,,,0.09,meteohub,2013-02-18 06:02:00,
2013-02-17 22:07:00,49.3,34.7,30.17,NE,45,5.0,11.0,57,0.00,,,0.09,meteohub,2013-02-18 06:07:00,
2013-02-17 22:12:00,48.9,34.9,30.17,NE,45,4.0,11.0,58,0.00,,,0.09,meteohub,2013-02-18 06:12:00,
2013-02-17 22:17:00,48.6,34.5,30.18,North,0,4.0,11.0,58,0.00,,,0.09,meteohub,2013-02-18 06:17:00,
2013-02-17 22:22:00,48.2,33.6,30.18,SW,225,3.0,6.0,57,0.00,,,0.09,meteohub,2013-02-18 06:22:00,
2013-02-17 22:27:00,47.5,33.4,30.18,South,180,2.0,6.0,58,0.00,,,0.09,meteohub,2013-02-18 06:27:00,
2013-02-17 22:32:00,47.1,33.4,30.18,East,90,3.0,4.0,59,0.00,,,0.09,meteohub,2013-02-18 06:32:00,
2013-02-17 22:37:00,47.1,34.7,30.18,North,0,2.0,4.0,62,0.00,,,0.09,meteohub,2013-02-18 06:37:00,
2013-02-17 22:42:00,46.8,34.0,30.18,East,90,3.0,4.0,61,0.00,,,0.09,meteohub,2013-02-18 06:42:00,
2013-02-17 22:47:00,46.4,33.6,30.18,SW,225,3.0,4.0,61,0.00,,,0.09,meteohub,2013-02-18 06:47:00,
2013-02-17 22:52:00,46.0,32.9,30.18,WSW,248,3.0,3.0,60,0.00,,,0.09,meteohub,2013-02-18 06:52:00,
2013-02-17 22:57:00,45.9,33.3,30.17,NNE,23,3.0,3.0,61,0.00,,,0.09,meteohub,2013-02-18 06:57:00,
2013-02-17 23:02:00,45.9,34.0,30.18,NE,45,4.0,4.0,63,0.00,,,0.09,meteohub,2013-02-18 07:02:00,
2013-02-17 23:07:00,45.7,33.8,30.18,NE,45,5.0,5.0,63,0.00,,,0.09,meteohub,2013-02-18 07:07:00,
2013-02-17 23:12:00,46.0,34.5,30.18,North,0,4.0,5.0,64,0.00,,,0.09,meteohub,2013-02-18 07:12:00,
2013-02-17 23:17:00,46.0,34.2,30.18,NW,315,4.0,5.0,63,0.00,,,0.09,meteohub,2013-02-18 07:17:00,
2013-02-17 23:22:00,45.9,34.0,30.18,NE,45,2.0,5.0,63,0.00,,,0.09,meteohub,2013-02-18 07:22:00,
2013-02-17 23:27:00,45.3,33.1,30.18,West,270,3.0,5.0,62,0.00,,,0.09,meteohub,2013-02-18 07:27:00,
2013-02-17 23:32:00,44.6,32.4,30.18,West,270,4.0,4.0,62,0.00,,,0.09,meteohub,2013-02-18 07:32:00,
2013-02-17 23:37:00,44.1,32.7,30.18,NW,315,4.0,4.0,64,0.00,,,0.09,meteohub,2013-02-18 07:37:00,
2013-02-17 23:42:00,43.7,33.1,30.18,NE,45,4.0,8.0,66,0.00,,,0.09,meteohub,2013-02-18 07:42:00,
2013-02-17 23:47:00,44.1,33.8,30.18,West,270,3.0,8.0,67,0.00,,,0.09,meteohub,2013-02-18 07:47:00,
2013-02-17 23:52:00,43.3,32.4,30.19,NW,315,4.0,8.0,65,0.00,,,0.09,meteohub,2013-02-18 07:52:00,
2013-02-17 23:57:00,42.3,31.6,30.19,NW,315,4.0,4.0,66,0.00,,,0.09,meteohub,2013-02-18 07:57:00,